createdAt,value
2022-10-10T00:01:05.097Z,10.67
2022-10-10T00:03:49.302Z,11.60
2022-10-10T00:06:34.631Z,10.33
2022-10-10T00:09:18.318Z,10.57
2022-10-10T00:12:02.126Z,10.10
2022-10-10T00:14:46.113Z,10.77
2022-10-10T00:17:29.845Z,10.97
2022-10-10T00:20:15.762Z,10.33
2022-10-10T00:23:00.907Z,9.67
2022-10-10T00:25:44.645Z,11.30
2022-10-10T00:28:28.901Z,10.47
2022-10-10T00:31:12.833Z,9.83
2022-10-10T00:33:56.833Z,11.07
2022-10-10T00:36:40.809Z,11.70
2022-10-10T00:39:26.358Z,10.93
2022-10-10T00:42:13.222Z,12.70
2022-10-10T00:45:24.054Z,12.63
2022-10-10T00:48:11.477Z,13.57
2022-10-10T00:50:58.894Z,13.13
2022-10-10T00:53:47.485Z,14.20
2022-10-10T00:56:37.618Z,13.17
2022-10-10T00:59:22.445Z,14.30
2022-10-10T01:02:07.084Z,11.83
2022-10-10T01:04:51.095Z,14.67
2022-10-10T01:07:35.427Z,14.17
2022-10-10T01:10:23.089Z,14.80
2022-10-10T01:13:17.966Z,15.00
2022-10-10T01:16:08.457Z,13.50
2022-10-10T01:19:01.617Z,10.87
2022-10-10T01:21:59.352Z,12.77
2022-10-10T01:24:56.436Z,12.40
2022-10-10T01:27:43.939Z,12.20
2022-10-10T01:30:31.166Z,10.63
2022-10-10T01:33:18.558Z,12.27
2022-10-10T01:36:12.650Z,12.03
2022-10-10T01:39:03.877Z,12.07
2022-10-10T01:41:54.116Z,11.83
2022-10-10T01:44:38.134Z,13.00
2022-10-10T01:47:24.621Z,14.00
2022-10-10T01:50:13.768Z,14.57
2022-10-10T01:53:08.805Z,14.00
2022-10-10T01:56:02.069Z,13.23
2022-10-10T01:59:00.220Z,15.00
2022-10-10T02:01:52.229Z,15.97
2022-10-10T02:04:43.235Z,13.63
2022-10-10T02:07:32.555Z,13.60
2022-10-10T02:10:22.660Z,11.63
2022-10-10T02:13:07.506Z,13.87
2022-10-10T02:15:54.858Z,16.53
2022-10-10T02:18:39.711Z,16.10
2022-10-10T02:21:26.137Z,15.93
2022-10-10T02:24:12.482Z,15.43
2022-10-10T02:27:04.889Z,14.93
2022-10-10T02:29:50.819Z,16.67
2022-10-10T02:32:41.438Z,15.23
2022-10-10T02:35:30.348Z,16.57
2022-10-10T02:38:16.844Z,14.43
2022-10-10T02:41:04.273Z,14.33
2022-10-10T02:43:50.136Z,11.63
2022-10-10T02:46:34.149Z,13.00
2022-10-10T02:49:24.800Z,13.03
2022-10-10T02:52:09.197Z,13.20
2022-10-10T02:54:54.418Z,12.70
2022-10-10T02:57:38.197Z,13.00
2022-10-10T03:00:21.972Z,13.47
2022-10-10T03:03:05.635Z,14.07
2022-10-10T03:05:50.302Z,14.03
2022-10-10T03:08:34.150Z,14.53
2022-10-10T03:11:19.939Z,13.67
2022-10-10T03:14:03.721Z,14.53
2022-10-10T03:16:47.501Z,13.57
2022-10-10T03:19:31.283Z,13.33
2022-10-10T03:22:15.011Z,14.30
2022-10-10T03:24:58.866Z,13.23
2022-10-10T03:27:44.179Z,13.63
2022-10-10T03:30:27.980Z,13.17
2022-10-10T03:33:11.762Z,14.07
2022-10-10T03:35:55.471Z,12.33
2022-10-10T03:38:40.348Z,11.77
2022-10-10T03:41:24.100Z,12.53
2022-10-10T03:44:09.224Z,12.50
2022-10-10T03:46:53.116Z,12.97
2022-10-10T03:49:36.891Z,12.60
2022-10-10T03:52:21.967Z,12.30
2022-10-10T03:55:06.832Z,12.23
2022-10-10T03:57:50.663Z,11.23
2022-10-10T04:00:36.134Z,13.07
2022-10-10T04:03:19.926Z,13.07
2022-10-10T04:06:03.652Z,11.23
2022-10-10T04:08:47.393Z,12.80
2022-10-10T04:11:31.214Z,9.53
2022-10-10T04:14:15.086Z,10.37
2022-10-10T04:17:03.087Z,11.20
2022-10-10T04:19:47.239Z,12.63
2022-10-10T04:22:31.000Z,10.70
2022-10-10T04:25:14.779Z,10.70
2022-10-10T04:28:01.056Z,10.27
2022-10-10T04:30:45.269Z,11.57
2022-10-10T04:33:30.427Z,12.67
2022-10-10T04:36:14.192Z,11.07
2022-10-10T04:38:58.038Z,10.97
2022-10-10T04:41:42.025Z,11.37
2022-10-10T04:44:26.183Z,10.47
2022-10-10T04:47:10.183Z,9.83
2022-10-10T04:49:55.396Z,12.70
2022-10-10T04:52:39.164Z,12.30
2022-10-10T04:55:22.896Z,11.40
2022-10-10T04:58:06.745Z,12.50
2022-10-10T05:00:52.891Z,11.10
2022-10-10T05:03:36.699Z,10.43
2022-10-10T05:06:23.332Z,9.77
2022-10-10T05:09:07.223Z,10.73
2022-10-10T05:11:50.972Z,10.17
2022-10-10T05:14:34.754Z,9.73
2022-10-10T05:17:18.528Z,9.80
2022-10-10T05:20:02.518Z,10.80
2022-10-10T05:22:49.325Z,11.07
2022-10-10T05:25:33.518Z,11.17
2022-10-10T05:28:17.692Z,11.97
2022-10-10T05:31:01.487Z,7.77
2022-10-10T05:33:45.730Z,10.57
2022-10-10T05:36:29.752Z,10.80
2022-10-10T05:39:14.895Z,9.90
2022-10-10T05:41:58.608Z,8.47
2022-10-10T05:44:42.402Z,9.83
2022-10-10T05:47:28.106Z,10.00
2022-10-10T05:50:26.122Z,8.50
2022-10-10T05:53:09.899Z,8.10
2022-10-10T05:55:55.394Z,7.43
2022-10-10T05:58:39.220Z,7.67
2022-10-10T06:01:22.984Z,7.93
2022-10-10T06:04:06.849Z,6.17
2022-10-10T06:06:50.709Z,6.30
2022-10-10T06:09:34.555Z,6.13
2022-10-10T06:12:19.738Z,7.10
2022-10-10T06:15:03.514Z,5.97
2022-10-10T06:17:47.639Z,6.03
2022-10-10T06:20:31.618Z,6.20
2022-10-10T06:23:15.375Z,6.60
2022-10-10T06:25:59.421Z,5.60
2022-10-10T06:28:44.599Z,4.60
2022-10-10T06:31:28.362Z,5.93
2022-10-10T06:34:12.091Z,4.30
2022-10-10T06:36:55.870Z,4.47
2022-10-10T06:39:39.761Z,4.70
2022-10-10T06:42:23.525Z,4.97
2022-10-10T06:45:15.491Z,4.17
2022-10-10T06:47:59.233Z,4.17
2022-10-10T06:50:43.034Z,4.40
2022-10-10T06:53:27.200Z,4.37
2022-10-10T06:56:17.427Z,4.43
2022-10-10T06:59:01.772Z,3.43
2022-10-10T07:01:47.025Z,3.27
2022-10-10T07:04:30.721Z,2.80
2022-10-10T07:07:14.458Z,3.60
2022-10-10T07:09:58.235Z,4.97
2022-10-10T07:12:44.681Z,4.77
2022-10-10T07:15:29.060Z,3.40
2022-10-10T07:18:14.533Z,3.97
2022-10-10T07:20:58.874Z,2.80
2022-10-10T07:23:42.740Z,3.57
2022-10-10T07:26:30.986Z,3.00
2022-10-10T07:29:14.757Z,3.17
2022-10-10T07:31:58.716Z,3.67
2022-10-10T07:34:44.198Z,3.43
2022-10-10T07:37:28.181Z,2.87
2022-10-10T07:40:12.458Z,4.17
2022-10-10T07:42:56.230Z,2.63
2022-10-10T07:45:40.234Z,2.70
2022-10-10T07:48:24.028Z,2.83
2022-10-10T07:51:09.714Z,2.80
2022-10-10T07:53:54.016Z,2.53
2022-10-10T07:56:37.953Z,2.00
2022-10-10T07:59:21.739Z,2.40
2022-10-10T08:02:05.508Z,2.80
2022-10-10T08:04:50.157Z,2.80
2022-10-10T08:07:35.892Z,3.63
2022-10-10T08:10:19.646Z,2.67
2022-10-10T08:13:03.543Z,2.67
2022-10-10T08:15:51.151Z,2.50
2022-10-10T08:18:34.882Z,2.30
2022-10-10T08:21:19.285Z,2.10
2022-10-10T08:24:04.483Z,2.77
2022-10-10T08:26:48.288Z,1.90
2022-10-10T08:29:33.997Z,1.90
2022-10-10T08:32:17.798Z,1.90
2022-10-10T08:35:01.603Z,1.90
2022-10-10T08:37:46.963Z,2.00
2022-10-10T08:40:32.720Z,2.90
2022-10-10T08:43:23.411Z,2.33
2022-10-10T08:46:15.810Z,2.65
2022-10-10T08:49:13.144Z,2.30
2022-10-10T08:52:04.700Z,1.92
2022-10-10T08:54:52.856Z,1.90
2022-10-10T08:57:50.625Z,2.92
2022-10-10T09:00:41.804Z,1.90
2022-10-10T09:03:31.774Z,2.03
2022-10-10T09:06:29.958Z,2.80
2022-10-10T09:09:20.933Z,1.85
2022-10-10T09:12:20.700Z,3.08
2022-10-10T09:15:16.499Z,1.85
2022-10-10T09:18:08.267Z,2.08
2022-10-10T09:21:00.069Z,1.88
2022-10-10T09:23:48.397Z,2.30
2022-10-10T09:26:36.929Z,3.25
2022-10-10T09:29:29.785Z,3.25
2022-10-10T09:32:19.543Z,2.03
2022-10-10T09:35:15.653Z,1.85
2022-10-10T09:38:12.405Z,1.65
2022-10-10T09:41:01.182Z,2.10
2022-10-10T09:43:45.641Z,2.35
2022-10-10T09:46:29.481Z,1.77
2022-10-10T09:49:17.774Z,2.60
2022-10-10T09:52:25.048Z,2.63
2022-10-10T09:55:25.448Z,2.60
2022-10-10T09:58:16.749Z,2.40
2022-10-10T10:01:19.000Z,2.70
2022-10-10T10:04:30.676Z,1.75
2022-10-10T10:07:28.677Z,1.75
2022-10-10T10:10:20.010Z,2.50
2022-10-10T10:13:03.843Z,2.17
2022-10-10T10:15:51.005Z,2.67
2022-10-10T10:18:40.899Z,2.28
2022-10-10T10:21:25.695Z,2.00
2022-10-10T10:24:24.390Z,1.88
2022-10-10T10:27:11.292Z,2.20
2022-10-10T10:29:56.732Z,1.90
2022-10-10T10:32:51.407Z,2.50
2022-10-10T10:35:41.167Z,2.25
2022-10-10T10:38:35.662Z,2.40
2022-10-10T10:41:29.689Z,2.50
2022-10-10T10:44:23.466Z,2.17
2022-10-10T10:47:23.044Z,2.13
2022-10-10T10:50:24.015Z,2.60
2022-10-10T10:53:20.070Z,2.10
2022-10-10T10:56:15.379Z,2.20
2022-10-10T11:02:55.384Z,2.10
2022-10-10T11:05:46.255Z,2.80
2022-10-10T11:08:42.143Z,2.60
2022-10-10T11:11:44.559Z,2.25
2022-10-10T11:14:47.539Z,2.50
2022-10-10T11:17:39.707Z,2.55
2022-10-10T11:20:28.725Z,2.17
2022-10-10T11:23:16.380Z,2.20
2022-10-10T11:26:06.358Z,2.40
2022-10-10T11:28:55.058Z,2.17
2022-10-10T11:31:44.647Z,2.15
2022-10-10T11:34:33.628Z,2.25
2022-10-10T11:37:22.386Z,2.00
2022-10-10T11:40:08.392Z,2.15
2022-10-10T11:42:57.847Z,2.17
2022-10-10T11:45:47.902Z,2.40
2022-10-10T11:48:44.585Z,2.50
2022-10-10T11:51:39.311Z,2.50
2022-10-10T11:54:32.838Z,3.15
2022-10-10T11:57:21.429Z,2.20
2022-10-10T12:00:08.344Z,3.38
2022-10-10T12:02:58.227Z,3.20
2022-10-10T12:05:50.537Z,3.53
2022-10-10T12:08:39.517Z,3.75
2022-10-10T12:11:27.636Z,3.22
2022-10-10T12:14:17.212Z,2.50
2022-10-10T12:17:01.335Z,2.40
2022-10-10T12:19:49.247Z,2.65
2022-10-10T12:22:37.250Z,2.40
2022-10-10T12:25:27.201Z,3.03
2022-10-10T12:28:30.480Z,2.30
2022-10-10T12:31:31.363Z,2.75
2022-10-10T12:34:41.995Z,2.45
2022-10-10T12:37:27.351Z,2.95
2022-10-10T12:40:23.656Z,2.97
2022-10-10T12:43:37.965Z,3.20
2022-10-10T12:46:30.565Z,3.33
2022-10-10T12:49:21.007Z,3.33
2022-10-10T12:52:13.505Z,3.30
2022-10-10T12:55:06.919Z,4.00
2022-10-10T12:57:55.594Z,3.42
2022-10-10T13:00:42.239Z,3.15
2022-10-10T13:03:29.588Z,4.45
2022-10-10T13:06:23.519Z,3.05
2022-10-10T13:09:11.007Z,3.63
2022-10-10T13:11:59.879Z,2.92
2022-10-10T13:14:46.540Z,2.95
2022-10-10T13:17:32.828Z,3.25
2022-10-10T13:20:29.700Z,3.88
2022-10-10T13:23:16.004Z,3.75
2022-10-10T13:26:01.008Z,3.75
2022-10-10T13:28:46.662Z,3.25
2022-10-10T13:31:32.850Z,3.30
2022-10-10T13:37:43.099Z,3.17
2022-10-10T13:40:28.226Z,3.10
2022-10-10T13:43:16.511Z,3.00
2022-10-10T13:46:03.635Z,2.92
2022-10-10T13:48:50.706Z,2.70
2022-10-10T13:51:45.688Z,2.50
2022-10-10T13:58:01.836Z,3.10
2022-10-10T14:00:56.372Z,3.10
2022-10-10T14:03:40.630Z,2.90
2022-10-10T14:06:28.856Z,2.78
2022-10-10T14:09:24.203Z,4.10
2022-10-10T14:12:16.770Z,2.95
2022-10-10T14:15:02.082Z,2.90
2022-10-10T14:17:47.721Z,2.80
2022-10-10T14:20:31.643Z,3.20
2022-10-10T14:23:17.743Z,2.95
2022-10-10T14:26:01.568Z,3.33
2022-10-10T14:28:46.798Z,3.00
2022-10-10T14:31:30.815Z,3.50
2022-10-10T14:34:16.044Z,2.92
2022-10-10T14:37:00.037Z,2.83
2022-10-10T14:39:45.785Z,2.88
2022-10-10T14:42:29.741Z,3.40
2022-10-10T14:45:17.019Z,3.55
2022-10-10T14:48:01.269Z,2.97
2022-10-10T14:50:47.429Z,3.20
2022-10-10T14:53:31.625Z,2.83
2022-10-10T14:56:17.220Z,3.70
2022-10-10T14:59:01.596Z,4.25
2022-10-10T15:01:46.395Z,3.90
2022-10-10T15:04:30.714Z,3.40
2022-10-10T15:07:15.773Z,3.40
2022-10-10T15:10:32.109Z,3.23
2022-10-10T15:13:06.313Z,4.20
2022-10-10T15:15:50.745Z,3.20
2022-10-10T15:18:59.351Z,3.67
2022-10-10T15:21:40.527Z,3.13
2022-10-10T15:24:25.052Z,3.63
2022-10-10T15:27:09.302Z,3.03
2022-10-10T15:29:55.103Z,2.80
2022-10-10T15:32:41.206Z,3.13
2022-10-10T15:35:26.535Z,3.73
2022-10-10T15:38:10.704Z,3.40
2022-10-10T15:40:59.744Z,3.90
2022-10-10T15:43:47.221Z,3.40
2022-10-10T15:46:33.041Z,5.07
2022-10-10T15:49:17.279Z,4.13
2022-10-10T15:52:01.431Z,3.10
2022-10-10T15:54:48.792Z,3.13
2022-10-10T15:57:33.583Z,3.37
2022-10-10T16:00:18.266Z,3.13
2022-10-10T16:03:05.807Z,2.70
2022-10-10T16:05:52.850Z,2.47
2022-10-10T16:08:37.787Z,2.93
2022-10-10T16:11:24.079Z,2.87
2022-10-10T16:14:08.297Z,2.80
2022-10-10T16:16:55.733Z,3.43
2022-10-10T16:19:41.591Z,3.07
2022-10-10T16:22:25.827Z,3.37
2022-10-10T16:25:21.867Z,3.07
2022-10-10T16:28:06.736Z,3.07
2022-10-10T16:30:51.011Z,4.07
2022-10-10T16:33:35.828Z,3.40
2022-10-10T16:36:23.096Z,4.80
2022-10-10T16:39:07.260Z,5.20
2022-10-10T16:41:51.477Z,5.70
2022-10-10T16:44:35.509Z,4.90
2022-10-10T16:47:19.515Z,4.93
2022-10-10T16:50:03.702Z,4.37
2022-10-10T16:52:49.133Z,4.33
2022-10-10T16:55:35.333Z,6.03
2022-10-10T16:58:19.343Z,5.50
2022-10-10T17:01:06.446Z,5.57
2022-10-10T17:03:51.784Z,5.23
2022-10-10T17:06:37.787Z,6.77
2022-10-10T17:09:23.825Z,9.20
2022-10-10T17:12:07.744Z,3.77
2022-10-10T17:14:51.570Z,4.13
2022-10-10T17:17:35.871Z,3.23
2022-10-10T17:20:19.720Z,5.03
2022-10-10T17:23:03.468Z,4.40
2022-10-10T17:25:48.976Z,3.60
2022-10-10T17:28:32.801Z,3.50
2022-10-10T17:31:17.554Z,3.67
2022-10-10T17:34:01.357Z,2.90
2022-10-10T17:36:45.209Z,3.30
2022-10-10T17:39:28.978Z,3.00
2022-10-10T17:42:14.237Z,3.20
2022-10-10T17:44:59.606Z,3.20
2022-10-10T17:47:43.693Z,3.20
2022-10-10T17:50:27.539Z,3.43
2022-10-10T17:53:11.387Z,3.97
2022-10-10T17:55:55.484Z,3.20
2022-10-10T17:58:40.917Z,4.00
2022-10-10T18:01:24.891Z,4.37
2022-10-10T18:04:09.138Z,3.60
2022-10-10T18:06:52.912Z,3.73
2022-10-10T18:09:36.875Z,3.30
2022-10-10T18:12:20.939Z,3.50
2022-10-10T18:15:06.717Z,3.70
2022-10-10T18:17:50.828Z,3.20
2022-10-10T18:20:37.572Z,3.80
2022-10-10T18:23:21.375Z,3.27
2022-10-10T18:26:07.785Z,3.50
2022-10-10T18:28:52.811Z,2.87
2022-10-10T18:31:39.220Z,3.23
2022-10-10T18:34:23.131Z,3.20
2022-10-10T18:37:07.267Z,3.37
2022-10-10T18:39:51.080Z,2.47
2022-10-10T18:42:34.992Z,2.80
2022-10-10T18:45:18.930Z,2.30
2022-10-10T18:48:04.212Z,2.60
2022-10-10T18:50:47.898Z,2.80
2022-10-10T18:53:32.207Z,2.83
2022-10-10T18:56:21.169Z,3.10
2022-10-10T18:59:06.982Z,3.13
2022-10-10T19:01:52.582Z,2.63
2022-10-10T19:04:37.903Z,3.40
2022-10-10T19:07:21.557Z,2.70
2022-10-10T19:10:05.886Z,3.10
2022-10-10T19:12:50.568Z,5.80
2022-10-10T19:15:34.966Z,5.73
2022-10-10T19:18:19.142Z,3.47
2022-10-10T19:21:06.335Z,5.90
2022-10-10T19:23:50.288Z,4.53
2022-10-10T19:26:34.300Z,3.80
2022-10-10T19:29:17.996Z,3.40
2022-10-10T19:32:01.830Z,4.97
2022-10-10T19:34:46.444Z,5.00
2022-10-10T19:37:31.609Z,4.53
2022-10-10T19:40:15.340Z,3.90
2022-10-10T19:42:59.177Z,4.33
2022-10-10T19:45:44.021Z,3.23
2022-10-10T19:48:28.379Z,3.07
2022-10-10T19:51:14.543Z,3.33
2022-10-10T19:53:59.794Z,3.10
2022-10-10T19:56:43.469Z,3.67
2022-10-10T19:59:27.396Z,3.23
2022-10-10T20:02:12.184Z,3.70
2022-10-10T20:04:55.984Z,2.90
2022-10-10T20:07:39.798Z,2.90
2022-10-10T20:10:24.933Z,3.20
2022-10-10T20:13:11.513Z,2.83
2022-10-10T20:15:55.374Z,3.27
2022-10-10T20:18:41.890Z,2.37
2022-10-10T20:21:31.584Z,2.70
2022-10-10T20:24:15.756Z,2.90
2022-10-10T20:27:00.900Z,2.40
2022-10-10T20:29:44.889Z,2.30
2022-10-10T20:32:28.844Z,2.40
2022-10-10T20:35:14.223Z,2.10
2022-10-10T20:37:58.268Z,2.43
2022-10-10T20:40:43.948Z,2.20
2022-10-10T20:43:29.444Z,2.10
2022-10-10T20:46:14.680Z,2.07
2022-10-10T20:49:00.550Z,2.37
2022-10-10T20:51:48.711Z,2.30
2022-10-10T20:54:32.456Z,2.20
2022-10-10T20:57:16.289Z,2.10
2022-10-10T21:00:01.439Z,2.07
2022-10-10T21:02:48.275Z,2.23
2022-10-10T21:05:32.126Z,2.40
2022-10-10T21:08:15.862Z,2.10
2022-10-10T21:11:00.767Z,1.97
2022-10-10T21:13:46.510Z,2.30
2022-10-10T21:16:33.453Z,2.20
2022-10-10T21:19:17.490Z,2.20
2022-10-10T21:22:01.188Z,1.80
2022-10-10T21:24:44.884Z,2.00
2022-10-10T21:27:28.605Z,2.20
2022-10-10T21:30:13.011Z,1.90
2022-10-10T21:32:58.174Z,1.87
2022-10-10T21:35:42.226Z,2.10
2022-10-10T21:38:26.342Z,1.70
2022-10-10T21:41:12.006Z,2.27
2022-10-10T21:43:57.379Z,1.90
2022-10-10T21:46:41.433Z,2.53
2022-10-10T21:49:26.671Z,2.10
2022-10-10T21:52:10.465Z,2.10
2022-10-10T21:54:54.165Z,1.80
2022-10-10T21:57:37.968Z,2.10
2022-10-10T22:00:22.473Z,1.93
2022-10-10T22:03:06.169Z,2.43
2022-10-10T22:05:51.176Z,2.17
2022-10-10T22:08:35.067Z,2.20
2022-10-10T22:11:20.729Z,2.27
2022-10-10T22:14:05.489Z,2.10
2022-10-10T22:16:49.303Z,1.73
2022-10-10T22:19:33.038Z,2.00
2022-10-10T22:22:18.141Z,2.80
2022-10-10T22:25:01.822Z,2.50
2022-10-10T22:27:46.860Z,2.10
2022-10-10T22:30:30.618Z,2.87
2022-10-10T22:33:14.329Z,2.07
2022-10-10T22:35:57.996Z,2.20
2022-10-10T22:38:45.185Z,2.40
2022-10-10T22:41:28.969Z,2.73
2022-10-10T22:44:14.792Z,2.40
2022-10-10T22:46:58.542Z,2.50
2022-10-10T22:49:42.269Z,2.33
2022-10-10T22:52:26.101Z,1.87
2022-10-10T22:55:15.830Z,2.10
2022-10-10T22:58:02.298Z,2.27
2022-10-10T23:00:46.155Z,3.00
2022-10-10T23:03:29.987Z,2.77
2022-10-10T23:06:13.923Z,2.80
2022-10-10T23:08:58.226Z,2.53
2022-10-10T23:11:43.514Z,2.77
2022-10-10T23:14:27.307Z,2.10
2022-10-10T23:17:11.045Z,2.53
2022-10-10T23:19:54.828Z,2.40
2022-10-10T23:22:38.531Z,2.43
2022-10-10T23:25:22.408Z,2.73
2022-10-10T23:28:07.720Z,2.40
2022-10-10T23:30:51.604Z,2.13
2022-10-10T23:33:37.117Z,2.53
2022-10-10T23:36:21.014Z,2.63
2022-10-10T23:39:09.762Z,2.70
2022-10-10T23:41:53.918Z,2.20
2022-10-10T23:44:39.122Z,2.20
2022-10-10T23:47:22.850Z,2.10
2022-10-10T23:50:07.604Z,2.30
2022-10-10T23:52:51.418Z,2.47
2022-10-10T23:55:35.848Z,1.80
2022-10-10T23:58:19.788Z,2.40
